createdAt,value
2017-06-30T00:00:38.547Z,17.54
2017-06-30T00:01:19.018Z,17.52
2017-06-30T00:01:59.502Z,17.54
2017-06-30T00:02:39.996Z,17.4
2017-06-30T00:03:20.481Z,17.46
2017-06-30T00:04:00.971Z,17.48
2017-06-30T00:04:41.469Z,17.44
2017-06-30T00:05:21.960Z,17.48
2017-06-30T00:06:02.448Z,17.48
2017-06-30T00:06:42.951Z,17.44
2017-06-30T00:07:23.412Z,17.48
2017-06-30T00:08:03.900Z,17.51
2017-06-30T00:08:44.380Z,17.55
2017-06-30T00:09:24.882Z,17.41
2017-06-30T00:10:05.372Z,17.46
2017-06-30T00:10:45.864Z,17.44
2017-06-30T00:11:26.368Z,17.46
2017-06-30T00:12:06.856Z,17.4
2017-06-30T00:12:47.341Z,17.36
2017-06-30T00:13:27.824Z,17.54
2017-06-30T00:14:08.305Z,17.48
2017-06-30T00:14:48.770Z,17.43
2017-06-30T00:15:29.223Z,17.43
2017-06-30T00:16:09.713Z,17.4
2017-06-30T00:16:50.152Z,17.41
2017-06-30T00:17:30.610Z,17.51
2017-06-30T00:18:11.091Z,17.44
2017-06-30T00:18:51.520Z,17.46
2017-06-30T00:19:31.980Z,17.49
2017-06-30T00:20:12.442Z,17.48
2017-06-30T00:20:52.901Z,17.51
2017-06-30T00:21:33.345Z,17.38
2017-06-30T00:22:13.799Z,17.44
2017-06-30T00:22:54.276Z,17.44
2017-06-30T00:24:31.631Z,17.52
2017-06-30T00:25:12.108Z,17.49
2017-06-30T00:25:52.596Z,17.46
2017-06-30T00:26:33.102Z,17.48
2017-06-30T00:27:13.560Z,17.46
2017-06-30T00:27:54.030Z,17.44
2017-06-30T00:28:34.539Z,17.46
2017-06-30T00:29:15.076Z,17.49
2017-06-30T00:29:55.491Z,17.46
2017-06-30T00:30:35.969Z,17.46
2017-06-30T00:31:16.462Z,17.49
2017-06-30T00:31:56.944Z,17.49
2017-06-30T00:32:37.417Z,17.4
2017-06-30T00:33:17.926Z,17.51
2017-06-30T00:33:58.408Z,17.52
2017-06-30T00:34:38.889Z,17.51
2017-06-30T00:35:19.402Z,17.48
2017-06-30T00:35:59.898Z,17.48
2017-06-30T00:36:40.355Z,17.44
2017-06-30T00:37:20.843Z,17.48
2017-06-30T00:38:01.304Z,17.43
2017-06-30T00:38:41.788Z,17.49
2017-06-30T00:39:22.278Z,17.51
2017-06-30T00:40:02.743Z,17.51
2017-06-30T00:40:43.206Z,17.52
2017-06-30T00:41:23.646Z,17.54
2017-06-30T00:42:04.089Z,17.56
2017-06-30T00:43:56.619Z,17.49
2017-06-30T00:44:37.094Z,17.54
2017-06-30T00:45:17.575Z,17.64
2017-06-30T00:45:58.060Z,17.55
2017-06-30T00:46:38.546Z,17.55
2017-06-30T00:47:19.044Z,17.55
2017-06-30T00:47:59.520Z,17.52
2017-06-30T00:48:39.952Z,17.48
2017-06-30T00:49:20.443Z,17.44
2017-06-30T00:51:12.992Z,17.43
2017-06-30T00:51:53.475Z,17.38
2017-06-30T00:52:33.963Z,17.51
2017-06-30T00:53:14.468Z,17.37
2017-06-30T00:53:54.946Z,17.46
2017-06-30T00:54:35.455Z,17.41
2017-06-30T00:55:15.928Z,17.37
2017-06-30T00:55:56.409Z,17.37
2017-06-30T00:56:36.913Z,17.34
2017-06-30T00:57:17.382Z,17.3
2017-06-30T00:57:57.868Z,17.4
2017-06-30T00:58:38.351Z,17.23
2017-06-30T00:59:18.857Z,17.19
2017-06-30T00:59:59.308Z,17.22
2017-06-30T01:00:39.768Z,17.22
2017-06-30T01:01:20.226Z,17.22
2017-06-30T01:02:00.709Z,17.34
2017-06-30T01:02:41.215Z,16.81
2017-06-30T01:03:21.707Z,17.25
2017-06-30T01:04:02.206Z,17.18
2017-06-30T01:04:42.690Z,17.23
2017-06-30T01:05:23.183Z,17.23
2017-06-30T01:06:03.688Z,17.31
2017-06-30T01:06:44.167Z,17.36
2017-06-30T01:07:24.685Z,17.36
2017-06-30T01:08:05.186Z,17.26
2017-06-30T01:08:45.675Z,17.36
2017-06-30T01:09:26.176Z,17.37
2017-06-30T01:10:06.662Z,17.37
2017-06-30T01:10:47.152Z,17.31
2017-06-30T01:11:27.659Z,17.4
2017-06-30T01:12:08.140Z,17.38
2017-06-30T01:12:48.632Z,17.38
2017-06-30T01:13:29.127Z,17.44
2017-06-30T01:14:09.609Z,17.41
2017-06-30T01:14:50.087Z,17.44
2017-06-30T01:15:30.565Z,17.4
2017-06-30T01:16:11.025Z,17.46
2017-06-30T01:17:58.525Z,17.44
2017-06-30T01:18:38.955Z,17.43
2017-06-30T01:19:19.463Z,17.52
2017-06-30T01:19:59.948Z,17.51
2017-06-30T01:20:40.435Z,17.46
2017-06-30T01:21:20.925Z,17.49
2017-06-30T01:22:01.422Z,17.37
2017-06-30T01:22:41.927Z,17.49
2017-06-30T01:23:22.398Z,17.36
2017-06-30T01:24:02.902Z,17.46
2017-06-30T01:24:43.389Z,17.48
2017-06-30T01:25:23.886Z,17.43
2017-06-30T01:26:04.386Z,17.49
2017-06-30T01:26:44.850Z,17.4
2017-06-30T01:27:25.334Z,17.52
2017-06-30T01:28:05.823Z,17.43
2017-06-30T01:28:46.316Z,17.46
2017-06-30T01:29:26.814Z,17.59
2017-06-30T01:30:07.301Z,17.49
2017-06-30T01:30:47.796Z,17.63
2017-06-30T01:31:28.283Z,17.52
2017-06-30T01:32:08.763Z,17.51
2017-06-30T01:32:49.271Z,17.54
2017-06-30T01:33:29.758Z,17.52
2017-06-30T01:34:10.244Z,17.55
2017-06-30T01:34:50.716Z,17.52
2017-06-30T01:35:31.191Z,17.51
2017-06-30T01:36:11.684Z,17.48
2017-06-30T01:36:52.161Z,17.4
2017-06-30T01:37:32.653Z,17.46
2017-06-30T01:38:13.144Z,17.48
2017-06-30T01:38:53.595Z,17.41
2017-06-30T01:39:34.055Z,17.49
2017-06-30T01:40:14.505Z,17.48
2017-06-30T01:40:54.978Z,17.41
2017-06-30T01:41:35.422Z,17.44
2017-06-30T01:42:15.883Z,17.48
2017-06-30T01:42:56.345Z,17.48
2017-06-30T01:43:36.807Z,17.37
2017-06-30T01:44:17.317Z,17.41
2017-06-30T01:44:57.806Z,17.44
2017-06-30T01:45:38.288Z,17.51
2017-06-30T01:46:18.780Z,17.49
2017-06-30T01:46:59.263Z,17.38
2017-06-30T01:47:39.714Z,17.51
2017-06-30T01:48:20.180Z,17.48
2017-06-30T01:49:00.630Z,17.48
2017-06-30T01:51:13.350Z,17.51
2017-06-30T01:51:53.800Z,17.44
2017-06-30T01:52:34.317Z,17.41
2017-06-30T01:53:14.767Z,17.43
2017-06-30T01:53:55.253Z,17.51
2017-06-30T01:54:35.732Z,17.46
2017-06-30T01:55:16.205Z,17.44
2017-06-30T01:57:13.881Z,17.44
2017-06-30T01:57:54.316Z,17.43
2017-06-30T01:58:34.790Z,17.4
2017-06-30T01:59:15.263Z,17.4
2017-06-30T02:01:02.701Z,17.4
2017-06-30T02:01:43.187Z,17.37
2017-06-30T02:02:23.660Z,17.36
2017-06-30T02:03:04.154Z,17.44
2017-06-30T02:03:44.653Z,17.46
2017-06-30T02:04:25.154Z,17.41
2017-06-30T02:05:05.632Z,17.46
2017-06-30T02:05:46.130Z,17.44
2017-06-30T02:06:26.619Z,17.44
2017-06-30T02:07:07.108Z,17.36
2017-06-30T02:07:47.656Z,17.48
2017-06-30T02:08:28.133Z,17.44
2017-06-30T02:09:08.627Z,17.52
2017-06-30T02:09:49.124Z,17.48
2017-06-30T02:10:29.615Z,17.54
2017-06-30T02:11:10.104Z,17.48
2017-06-30T02:11:50.596Z,17.44
2017-06-30T02:12:31.093Z,17.49
2017-06-30T02:13:11.583Z,17.46
2017-06-30T02:13:52.032Z,17.49
2017-06-30T02:15:39.505Z,17.54
2017-06-30T02:16:19.972Z,17.46
2017-06-30T02:18:17.616Z,17.58
2017-06-30T02:18:58.070Z,17.46
2017-06-30T02:19:38.565Z,17.43
2017-06-30T02:20:19.048Z,17.43
2017-06-30T02:20:59.510Z,17.4
2017-06-30T02:21:40.001Z,17.41
2017-06-30T02:22:20.498Z,17.59
2017-06-30T02:23:00.991Z,17.56
2017-06-30T02:23:41.492Z,17.52
2017-06-30T02:24:21.942Z,17.51
2017-06-30T02:25:02.433Z,17.56
2017-06-30T02:25:42.959Z,17.55
2017-06-30T02:26:23.414Z,17.58
2017-06-30T02:27:03.893Z,17.56
2017-06-30T02:27:44.397Z,17.54
2017-06-30T02:28:24.875Z,17.52
2017-06-30T02:29:05.374Z,17.54
2017-06-30T02:29:45.873Z,17.55
2017-06-30T02:30:26.350Z,17.54
2017-06-30T02:31:06.837Z,17.56
2017-06-30T02:31:47.334Z,17.51
2017-06-30T02:32:27.832Z,17.59
2017-06-30T02:33:08.327Z,17.55
2017-06-30T02:33:48.796Z,17.51
2017-06-30T02:34:29.280Z,17.55
2017-06-30T02:35:09.765Z,17.48
2017-06-30T02:35:50.270Z,17.51
2017-06-30T02:36:30.758Z,17.49
2017-06-30T02:37:11.224Z,17.54
2017-06-30T02:37:51.696Z,17.48
2017-06-30T02:38:32.183Z,17.52
2017-06-30T02:39:12.672Z,17.56
2017-06-30T02:39:53.177Z,17.56
2017-06-30T02:40:33.672Z,17.52
2017-06-30T02:41:14.163Z,17.56
2017-06-30T02:41:54.617Z,17.43
2017-06-30T02:42:35.066Z,17.4
2017-06-30T02:43:15.540Z,17.46
2017-06-30T02:43:55.980Z,17.49
2017-06-30T02:44:36.447Z,17.41
2017-06-30T02:45:16.942Z,17.49
2017-06-30T02:45:57.385Z,17.49
2017-06-30T02:46:37.851Z,17.37
2017-06-30T02:47:18.326Z,17.36
2017-06-30T02:49:15.958Z,17.4
2017-06-30T02:49:56.412Z,17.36
2017-06-30T02:50:36.896Z,17.36
2017-06-30T02:51:17.383Z,17.23
2017-06-30T02:51:57.885Z,17.21
2017-06-30T02:52:38.371Z,17.22
2017-06-30T02:53:18.865Z,17.19
2017-06-30T02:53:59.339Z,17.23
2017-06-30T02:54:39.844Z,17.23
2017-06-30T02:55:20.338Z,17.19
2017-06-30T02:56:00.818Z,17.22
2017-06-30T02:56:41.317Z,17.18
2017-06-30T02:57:21.813Z,17.12
2017-06-30T02:58:02.314Z,17.18
2017-06-30T02:58:42.808Z,17.14
2017-06-30T02:59:23.294Z,17.07
2017-06-30T03:00:03.792Z,17.15
2017-06-30T03:00:44.283Z,17.11
2017-06-30T03:01:24.767Z,17.12
2017-06-30T03:02:05.275Z,17.12
2017-06-30T03:02:45.769Z,17.18
2017-06-30T03:03:26.243Z,17.12
2017-06-30T03:04:06.786Z,17.11
2017-06-30T03:04:47.227Z,17.08
2017-06-30T03:05:27.722Z,17.14
2017-06-30T03:06:08.217Z,17.12
2017-06-30T03:06:48.707Z,17.06
2017-06-30T03:07:29.201Z,17.14
2017-06-30T03:08:09.697Z,17.18
2017-06-30T03:08:50.188Z,17.04
2017-06-30T03:09:30.679Z,17.01
2017-06-30T03:10:11.180Z,17.06
2017-06-30T03:10:51.651Z,17.04
2017-06-30T03:11:32.110Z,16.94
2017-06-30T03:12:12.592Z,17.03
2017-06-30T03:14:10.214Z,16.97
2017-06-30T03:14:50.718Z,16.97
2017-06-30T03:15:31.187Z,17
2017-06-30T03:16:11.674Z,16.94
2017-06-30T03:16:52.174Z,17.01
2017-06-30T03:17:32.653Z,16.94
2017-06-30T03:18:13.149Z,17
2017-06-30T03:18:53.648Z,17.06
2017-06-30T03:19:34.127Z,17.03
2017-06-30T03:20:14.634Z,16.98
2017-06-30T03:20:55.132Z,16.97
2017-06-30T03:22:47.713Z,16.96
2017-06-30T03:23:28.136Z,16.93
2017-06-30T03:24:08.620Z,16.96
2017-06-30T03:24:49.127Z,16.94
2017-06-30T03:25:29.600Z,16.88
2017-06-30T03:26:10.084Z,16.94
2017-06-30T03:26:50.591Z,16.93
2017-06-30T03:27:31.070Z,16.97
2017-06-30T03:28:11.567Z,16.89
2017-06-30T03:28:52.051Z,16.89
2017-06-30T03:29:32.531Z,16.88
2017-06-30T03:30:13.027Z,16.91
2017-06-30T03:30:53.526Z,16.89
2017-06-30T03:31:34.003Z,16.94
2017-06-30T03:32:14.488Z,16.89
2017-06-30T03:32:54.973Z,16.96
2017-06-30T03:33:35.463Z,16.88
2017-06-30T03:34:15.952Z,16.93
2017-06-30T03:34:56.443Z,16.94
2017-06-30T03:35:36.940Z,16.97
2017-06-30T03:36:17.428Z,16.94
2017-06-30T03:36:57.921Z,16.89
2017-06-30T03:37:38.415Z,16.89
2017-06-30T03:38:18.897Z,16.89
2017-06-30T03:38:59.386Z,16.94
2017-06-30T03:39:39.872Z,16.97
2017-06-30T03:40:20.367Z,16.91
2017-06-30T03:41:00.847Z,16.91
2017-06-30T03:41:41.327Z,16.88
2017-06-30T03:42:21.827Z,16.96
2017-06-30T03:43:02.321Z,16.96
2017-06-30T03:43:42.818Z,16.97
2017-06-30T03:44:23.304Z,16.93
2017-06-30T03:45:03.799Z,16.96
2017-06-30T03:45:44.302Z,16.91
2017-06-30T03:46:24.789Z,17.04
2017-06-30T03:47:05.302Z,17.07
2017-06-30T03:47:45.754Z,17.06
2017-06-30T03:48:26.250Z,17.08
2017-06-30T03:49:06.735Z,17.11
2017-06-30T03:50:59.249Z,17.14
2017-06-30T03:51:39.738Z,17.11
2017-06-30T03:52:20.206Z,17.16
2017-06-30T03:53:00.697Z,17.01
2017-06-30T03:53:41.169Z,17.03
2017-06-30T03:54:21.659Z,17.04
2017-06-30T03:55:02.145Z,17.07
2017-06-30T03:55:42.634Z,17.08
2017-06-30T03:56:23.110Z,17.06
2017-06-30T03:57:03.611Z,17.04
2017-06-30T03:57:44.098Z,16.97
2017-06-30T03:58:24.592Z,17.03
2017-06-30T03:59:05.094Z,17
2017-06-30T03:59:45.557Z,17.04
2017-06-30T04:00:26.044Z,17
2017-06-30T04:01:06.538Z,17.03
2017-06-30T04:01:47.029Z,17.06
2017-06-30T04:02:27.520Z,17.03
2017-06-30T04:03:08.054Z,16.98
2017-06-30T04:03:48.512Z,16.94
2017-06-30T04:04:29.001Z,16.94
2017-06-30T04:05:09.517Z,16.93
2017-06-30T04:05:50.003Z,16.97
2017-06-30T04:06:30.497Z,16.96
2017-06-30T04:07:11.948Z,16.89
2017-06-30T04:07:52.438Z,16.94
2017-06-30T04:08:32.947Z,16.98
2017-06-30T04:09:13.438Z,16.91
2017-06-30T04:09:53.929Z,16.96
2017-06-30T04:10:34.427Z,16.96
2017-06-30T04:11:14.914Z,16.97
2017-06-30T04:11:55.413Z,17.01
2017-06-30T04:12:35.894Z,16.98
2017-06-30T04:13:16.375Z,17.04
2017-06-30T04:13:56.851Z,16.98
2017-06-30T04:14:37.342Z,17.04
2017-06-30T04:15:17.833Z,16.98
2017-06-30T04:15:58.331Z,16.98
2017-06-30T04:16:38.825Z,17.04
2017-06-30T04:17:19.303Z,17
2017-06-30T04:17:59.774Z,17.03
2017-06-30T04:18:40.218Z,17.08
2017-06-30T04:20:17.556Z,17
2017-06-30T04:20:58.034Z,17.01
2017-06-30T04:21:39.110Z,17
2017-06-30T04:22:19.589Z,17.03
2017-06-30T04:23:00.088Z,17.06
2017-06-30T04:23:40.571Z,17.06
2017-06-30T04:24:21.093Z,17.08
2017-06-30T04:25:01.565Z,17.03
2017-06-30T04:25:42.058Z,17.04
2017-06-30T04:26:22.543Z,16.97
2017-06-30T04:27:03.031Z,17.08
2017-06-30T04:27:43.514Z,17.06
2017-06-30T04:28:23.984Z,17.01
2017-06-30T04:29:04.492Z,17.14
2017-06-30T04:29:44.974Z,17.14
2017-06-30T04:30:25.469Z,17.18
2017-06-30T04:31:05.962Z,17.16
2017-06-30T04:31:46.457Z,17.19
2017-06-30T04:32:26.945Z,17.23
2017-06-30T04:33:07.430Z,17.23
2017-06-30T04:35:05.140Z,17.25
2017-06-30T04:35:45.525Z,17.34
2017-06-30T04:36:26.016Z,17.25
2017-06-30T04:37:06.508Z,17.43
2017-06-30T04:37:46.995Z,17.43
2017-06-30T04:38:27.492Z,17.38
2017-06-30T04:39:07.979Z,17.46
2017-06-30T04:39:48.457Z,17.48
2017-06-30T04:40:28.947Z,17.55
2017-06-30T04:41:09.425Z,17.68
2017-06-30T04:41:49.938Z,17.82
2017-06-30T04:42:30.430Z,17.86
2017-06-30T04:43:10.897Z,17.93
2017-06-30T04:43:51.397Z,17.97
2017-06-30T04:44:31.897Z,18.14
2017-06-30T04:45:12.374Z,17.97
2017-06-30T04:45:52.853Z,17.95
2017-06-30T04:46:33.345Z,18.03
2017-06-30T04:47:13.829Z,17.96
2017-06-30T04:47:54.315Z,17.99
2017-06-30T04:48:34.811Z,18.05
2017-06-30T04:49:15.292Z,17.9
2017-06-30T04:49:55.788Z,17.96
2017-06-30T04:50:36.294Z,17.93
2017-06-30T04:51:16.773Z,17.99
2017-06-30T04:51:57.265Z,17.96
2017-06-30T04:52:37.721Z,17.95
2017-06-30T04:53:18.180Z,17.9
2017-06-30T04:53:58.682Z,17.95
2017-06-30T04:54:39.170Z,17.92
2017-06-30T04:55:19.640Z,17.97
2017-06-30T04:56:00.118Z,17.95
2017-06-30T04:56:40.611Z,18.07
2017-06-30T04:57:21.113Z,17.97
2017-06-30T04:58:01.600Z,17.92
2017-06-30T04:58:42.089Z,17.96
2017-06-30T04:59:22.568Z,17.93
2017-06-30T05:00:03.028Z,17.99
2017-06-30T05:01:50.534Z,18.07
2017-06-30T05:02:31.027Z,18.17
2017-06-30T05:03:11.467Z,18.03
2017-06-30T05:03:51.988Z,18.02
2017-06-30T05:04:32.512Z,18.07
2017-06-30T05:05:13.034Z,18.14
2017-06-30T05:05:53.519Z,18.17
2017-06-30T05:06:34.013Z,18.07
2017-06-30T05:07:14.495Z,18.18
2017-06-30T05:07:55.001Z,18.18
2017-06-30T05:08:35.473Z,18.15
2017-06-30T05:09:15.977Z,18.12
2017-06-30T05:09:56.468Z,18.15
2017-06-30T05:10:36.968Z,18.12
2017-06-30T05:11:17.450Z,18.3
2017-06-30T05:11:57.909Z,18.33
2017-06-30T05:12:38.407Z,18.27
2017-06-30T05:13:18.882Z,18.3
2017-06-30T05:13:59.355Z,18.32
2017-06-30T05:15:56.976Z,18.42
2017-06-30T05:16:37.479Z,18.51
2017-06-30T05:17:17.978Z,18.52
2017-06-30T05:17:58.485Z,18.5
2017-06-30T05:18:38.953Z,18.47
2017-06-30T05:19:19.459Z,18.57
2017-06-30T05:19:59.971Z,18.44
2017-06-30T05:20:40.467Z,18.57
2017-06-30T05:21:20.942Z,18.58
2017-06-30T05:22:01.442Z,18.57
2017-06-30T05:22:41.915Z,18.5
2017-06-30T05:23:22.410Z,18.58
2017-06-30T05:24:03.870Z,18.67
2017-06-30T05:24:44.362Z,18.81
2017-06-30T05:25:24.857Z,18.7
2017-06-30T05:26:05.330Z,18.67
2017-06-30T05:26:45.842Z,18.62
2017-06-30T05:27:26.353Z,18.58
2017-06-30T05:28:06.909Z,18.63
2017-06-30T05:28:47.408Z,18.65
2017-06-30T05:29:27.910Z,18.76
2017-06-30T05:30:08.396Z,18.73
2017-06-30T05:30:48.864Z,18.73
2017-06-30T05:31:29.377Z,18.8
2017-06-30T05:32:09.871Z,18.75
2017-06-30T05:32:50.360Z,18.73
2017-06-30T05:33:30.847Z,18.82
2017-06-30T05:34:11.346Z,18.8
2017-06-30T05:34:51.845Z,18.81
2017-06-30T05:35:32.334Z,18.87
2017-06-30T05:36:12.867Z,18.92
2017-06-30T05:36:53.360Z,18.94
2017-06-30T05:37:33.841Z,18.94
2017-06-30T05:38:14.339Z,18.9
2017-06-30T05:38:54.819Z,18.72
2017-06-30T05:39:35.344Z,18.76
2017-06-30T05:40:15.788Z,18.94
2017-06-30T05:40:56.281Z,19.02
2017-06-30T05:41:36.779Z,19.02
2017-06-30T05:42:17.256Z,19.02
2017-06-30T05:42:57.750Z,18.95
2017-06-30T05:43:38.242Z,19.19
2017-06-30T05:44:18.731Z,19.21
2017-06-30T05:44:59.213Z,19.02
2017-06-30T05:45:39.714Z,18.92
2017-06-30T05:46:20.211Z,19.11
2017-06-30T05:47:00.705Z,19.16
2017-06-30T05:47:41.191Z,19.1
2017-06-30T05:48:21.678Z,19.08
2017-06-30T05:49:02.140Z,19.04
2017-06-30T05:50:49.611Z,19.16
2017-06-30T05:51:30.084Z,19.29
2017-06-30T05:52:10.566Z,19.37
2017-06-30T05:52:51.070Z,19.16
2017-06-30T05:53:31.573Z,19.22
2017-06-30T05:54:12.068Z,19.11
2017-06-30T05:54:52.548Z,19.21
2017-06-30T05:55:33.041Z,19.44
2017-06-30T05:56:13.584Z,19.68
2017-06-30T05:56:54.017Z,20.02
2017-06-30T05:57:34.472Z,20.26
2017-06-30T05:58:14.979Z,20.59
2017-06-30T05:58:55.490Z,20.62
2017-06-30T06:01:08.196Z,21.01
2017-06-30T06:01:48.687Z,21.1
2017-06-30T06:02:29.180Z,20.95
2017-06-30T06:03:09.675Z,20.66
2017-06-30T06:03:50.181Z,20.7
2017-06-30T06:04:30.680Z,20.62
2017-06-30T06:05:11.187Z,20.85
2017-06-30T06:05:51.674Z,21.19
2017-06-30T06:06:32.161Z,21.44
2017-06-30T06:07:12.639Z,21.67
2017-06-30T06:07:53.092Z,22.05
2017-06-30T06:08:33.604Z,22.12
2017-06-30T06:09:14.099Z,22.47
2017-06-30T06:09:54.595Z,22.72
2017-06-30T06:10:35.073Z,22.83
2017-06-30T06:11:15.564Z,22.49
2017-06-30T06:11:56.056Z,22.57
2017-06-30T06:12:36.546Z,22.58
2017-06-30T06:13:17.025Z,22.28
2017-06-30T06:13:57.524Z,21.88
2017-06-30T06:14:38.023Z,21.94
2017-06-30T06:15:18.535Z,21.84
2017-06-30T06:15:59.025Z,21.68
2017-06-30T06:17:46.520Z,21.42
2017-06-30T06:18:26.930Z,21.27
2017-06-30T06:19:07.423Z,21.4
2017-06-30T06:19:47.917Z,21.75
2017-06-30T06:20:28.417Z,21.68
2017-06-30T06:21:08.920Z,21.88
2017-06-30T06:21:49.423Z,21.92
2017-06-30T06:22:29.896Z,22.06
2017-06-30T06:23:10.395Z,22.2
2017-06-30T06:23:50.837Z,22.35
2017-06-30T06:25:28.246Z,22.47
2017-06-30T06:26:08.696Z,22.64
2017-06-30T06:26:49.180Z,22.61
2017-06-30T06:27:29.732Z,22.72
2017-06-30T06:28:10.251Z,22.94
2017-06-30T06:28:50.727Z,23.22
2017-06-30T06:29:31.214Z,23.17
2017-06-30T06:30:11.731Z,23.27
2017-06-30T06:30:52.210Z,23.54
2017-06-30T06:31:32.688Z,23.42
2017-06-30T06:33:45.461Z,23.25
2017-06-30T06:34:25.957Z,23.42
2017-06-30T06:35:06.460Z,23.48
2017-06-30T06:35:46.986Z,23.68
2017-06-30T06:36:27.451Z,23.98
2017-06-30T06:37:07.970Z,23.97
2017-06-30T06:37:48.487Z,24.09
2017-06-30T06:38:28.992Z,23.78
2017-06-30T06:39:09.479Z,23.47
2017-06-30T06:39:49.967Z,23.2
2017-06-30T06:40:30.482Z,23
2017-06-30T06:41:10.960Z,23.27
2017-06-30T06:41:51.431Z,23.54
2017-06-30T06:42:31.919Z,23.5
2017-06-30T06:43:12.404Z,23.8
2017-06-30T06:43:52.899Z,24.09
2017-06-30T06:44:33.398Z,24.28
2017-06-30T06:45:13.907Z,24.39
2017-06-30T06:45:54.395Z,24.03
2017-06-30T06:46:34.909Z,24.2
2017-06-30T06:47:15.395Z,24.4
2017-06-30T06:47:55.891Z,24.67
2017-06-30T06:48:36.364Z,24.67
2017-06-30T06:49:16.877Z,24.4
2017-06-30T06:49:57.368Z,24.4
2017-06-30T06:50:37.860Z,24.35
2017-06-30T06:51:18.349Z,24.43
2017-06-30T06:51:58.836Z,24.37
2017-06-30T06:52:39.304Z,24.13
2017-06-30T06:53:19.789Z,24.12
2017-06-30T06:54:00.279Z,24.52
2017-06-30T06:54:40.821Z,24.57
2017-06-30T06:55:21.285Z,24.62
2017-06-30T06:56:01.757Z,24.67
2017-06-30T06:56:42.253Z,24.6
2017-06-30T06:57:22.781Z,24.35
2017-06-30T06:58:03.270Z,24.28
2017-06-30T06:58:43.768Z,23.98
2017-06-30T06:59:24.266Z,23.95
2017-06-30T07:00:04.767Z,23.72
2017-06-30T07:00:45.256Z,23.68
2017-06-30T07:02:42.928Z,24
2017-06-30T07:03:23.384Z,23.94
2017-06-30T07:04:03.882Z,23.98
2017-06-30T07:04:44.354Z,23.84
2017-06-30T07:06:41.947Z,23.66
2017-06-30T07:07:22.445Z,23.84
2017-06-30T07:08:02.937Z,24.16
2017-06-30T07:08:43.469Z,24.06
2017-06-30T07:09:23.935Z,24.12
2017-06-30T07:10:04.446Z,24.52
2017-06-30T07:10:44.955Z,24.55
2017-06-30T07:11:25.443Z,24.39
2017-06-30T07:12:05.908Z,24.37
2017-06-30T07:12:46.378Z,24.49
2017-06-30T07:13:26.894Z,24.65
2017-06-30T07:14:07.382Z,24.61
2017-06-30T07:14:47.910Z,24.4
2017-06-30T07:15:28.423Z,24.5
2017-06-30T07:16:08.978Z,24.22
2017-06-30T07:16:49.510Z,24.71
2017-06-30T07:17:29.986Z,24.9
2017-06-30T07:18:10.547Z,24.69
2017-06-30T07:18:51.036Z,24.87
2017-06-30T07:19:31.534Z,24.81
2017-06-30T07:20:11.999Z,25.14
2017-06-30T07:20:52.455Z,25.39
2017-06-30T07:21:32.908Z,25.69
2017-06-30T07:23:20.405Z,25.77
2017-06-30T07:24:00.895Z,25.8
2017-06-30T07:24:41.966Z,25.32
2017-06-30T07:25:22.463Z,25.46
2017-06-30T07:26:03.003Z,25.61
2017-06-30T07:26:43.589Z,25.9
2017-06-30T07:27:24.023Z,26.12
2017-06-30T07:28:04.543Z,26.6
2017-06-30T07:28:45.028Z,26.58
2017-06-30T07:29:25.505Z,26.23
2017-06-30T07:30:06.000Z,26.06
2017-06-30T07:30:46.479Z,25.67
2017-06-30T07:31:26.995Z,25.35
2017-06-30T07:32:07.489Z,25.8
2017-06-30T07:32:47.989Z,26.23
2017-06-30T07:33:28.477Z,25.87
2017-06-30T07:34:08.959Z,25.27
2017-06-30T07:34:49.437Z,25.24
2017-06-30T07:35:29.939Z,24.98
2017-06-30T07:36:10.432Z,24.69
2017-06-30T07:36:50.940Z,25.28
2017-06-30T07:37:31.413Z,25.79
2017-06-30T07:38:11.914Z,25.69
2017-06-30T07:38:52.389Z,26.17
2017-06-30T07:39:32.900Z,25.91
2017-06-30T07:40:13.429Z,25.4
2017-06-30T07:40:53.959Z,24.98
2017-06-30T07:41:34.423Z,25.21
2017-06-30T07:42:14.967Z,25.25
2017-06-30T07:42:55.475Z,25.83
2017-06-30T07:43:35.962Z,25.87
2017-06-30T07:44:17.201Z,26.3
2017-06-30T07:44:57.719Z,26.63
2017-06-30T07:45:38.245Z,27.17
2017-06-30T07:46:18.752Z,27.29
2017-06-30T07:46:59.235Z,27.06
2017-06-30T07:47:39.809Z,27.46
2017-06-30T07:49:32.427Z,26.58
2017-06-30T07:50:12.865Z,26.25
2017-06-30T07:50:53.367Z,26.2
2017-06-30T07:51:33.895Z,25.72
2017-06-30T07:53:21.345Z,25.92
2017-06-30T07:54:01.854Z,25.65
2017-06-30T07:54:42.293Z,25.85
2017-06-30T07:55:22.823Z,26.32
2017-06-30T07:56:03.354Z,26.39
2017-06-30T07:56:43.940Z,26.54
2017-06-30T07:57:25.464Z,26.72
2017-06-30T07:58:05.987Z,26.95
2017-06-30T07:58:46.497Z,27.37
2017-06-30T07:59:27.075Z,27.49
2017-06-30T08:00:07.560Z,27.62
2017-06-30T08:00:48.048Z,27.34
2017-06-30T08:01:28.572Z,27.31
2017-06-30T08:02:09.055Z,27.5
2017-06-30T08:02:49.559Z,27.57
2017-06-30T08:03:30.025Z,26.84
2017-06-30T08:04:10.494Z,26.32
2017-06-30T08:04:51.012Z,26.84
2017-06-30T08:05:31.507Z,26.99
2017-06-30T08:06:11.978Z,27.04
2017-06-30T08:06:52.452Z,26.75
2017-06-30T08:07:32.945Z,26.75
2017-06-30T08:08:13.438Z,26.87
2017-06-30T08:08:53.922Z,27
2017-06-30T08:09:34.414Z,26.85
2017-06-30T08:10:14.912Z,26.55
2017-06-30T08:10:55.359Z,26.72
2017-06-30T08:12:32.767Z,26.39
2017-06-30T08:13:13.223Z,26.35
2017-06-30T08:13:53.784Z,26.33
2017-06-30T08:14:34.247Z,26.62
2017-06-30T08:15:14.725Z,26.95
2017-06-30T08:15:55.203Z,27.47
2017-06-30T08:16:35.709Z,27.93
2017-06-30T08:17:16.209Z,28.27
2017-06-30T08:17:56.749Z,28.49
2017-06-30T08:18:37.253Z,28
2017-06-30T08:19:17.769Z,27.49
2017-06-30T08:19:58.232Z,27.82
2017-06-30T08:20:38.750Z,27.85
2017-06-30T08:21:19.249Z,27.31
2017-06-30T08:21:59.737Z,26.67
2017-06-30T08:22:40.229Z,26.66
2017-06-30T08:23:20.737Z,27.13
2017-06-30T08:24:01.230Z,26.52
2017-06-30T08:24:41.744Z,27
2017-06-30T08:25:22.262Z,27.24
2017-06-30T08:26:02.813Z,27.85
2017-06-30T08:26:43.351Z,27.59
2017-06-30T08:27:23.834Z,27.97
2017-06-30T08:28:04.337Z,28.25
2017-06-30T08:28:44.839Z,28.02
2017-06-30T08:29:25.303Z,28.11
2017-06-30T08:31:12.798Z,27.28
2017-06-30T08:31:53.322Z,27.31
2017-06-30T08:32:33.847Z,27
2017-06-30T08:33:14.352Z,26.94
2017-06-30T08:33:54.840Z,27.13
2017-06-30T08:34:35.394Z,27.57
2017-06-30T08:35:15.865Z,27.85
2017-06-30T08:35:56.389Z,28.11
2017-06-30T08:36:36.887Z,28.41
2017-06-30T08:37:17.391Z,28.22
2017-06-30T08:37:57.892Z,28.37
2017-06-30T08:38:38.377Z,28.77
2017-06-30T08:39:18.816Z,29.24
2017-06-30T08:39:59.302Z,29.73
2017-06-30T08:40:39.794Z,30.38
2017-06-30T08:41:20.280Z,30.57
2017-06-30T08:42:00.748Z,30.73
2017-06-30T08:42:41.233Z,31.04
2017-06-30T08:43:21.744Z,30.91
2017-06-30T08:44:02.194Z,29.52
2017-06-30T08:44:42.642Z,29.86
2017-06-30T08:46:30.173Z,29.39
2017-06-30T08:47:10.620Z,29.7
2017-06-30T08:47:51.132Z,29.65
2017-06-30T08:48:31.616Z,29.71
2017-06-30T08:49:12.099Z,28.8
2017-06-30T08:49:52.593Z,28.96
2017-06-30T08:50:33.076Z,29.11
2017-06-30T08:51:13.597Z,29.06
2017-06-30T08:51:54.094Z,28.67
2017-06-30T08:52:34.588Z,28.14
2017-06-30T08:53:15.072Z,27.24
2017-06-30T08:53:55.573Z,27.12
2017-06-30T08:54:36.088Z,26.75
2017-06-30T08:55:16.562Z,26.55
2017-06-30T08:55:57.080Z,26.36
2017-06-30T08:56:37.577Z,26.47
2017-06-30T08:57:18.086Z,26.35
2017-06-30T08:57:58.571Z,27.14
2017-06-30T08:58:39.048Z,28.15
2017-06-30T09:00:26.524Z,28.14
2017-06-30T09:01:07.003Z,27.44
2017-06-30T09:01:47.498Z,28.15
2017-06-30T09:02:27.962Z,28.14
2017-06-30T09:03:08.460Z,28.59
2017-06-30T09:03:48.984Z,28.95
2017-06-30T09:04:29.513Z,29.26
2017-06-30T09:05:10.054Z,29.15
2017-06-30T09:05:50.580Z,29.04
2017-06-30T09:06:31.030Z,29.89
2017-06-30T09:07:11.536Z,30.69
2017-06-30T09:07:52.058Z,31.09
2017-06-30T09:08:32.601Z,31.01
2017-06-30T09:09:13.182Z,31.25
2017-06-30T09:09:53.678Z,31.34
2017-06-30T09:10:34.157Z,31.43
2017-06-30T09:11:14.650Z,31.72
2017-06-30T09:11:55.159Z,31.53
2017-06-30T09:12:35.665Z,30.7
2017-06-30T09:13:16.182Z,30.2
2017-06-30T09:13:56.629Z,30.27
2017-06-30T09:14:37.116Z,29.23
2017-06-30T09:15:17.644Z,29.7
2017-06-30T09:15:58.121Z,30.38
2017-06-30T09:17:45.972Z,31.84
2017-06-30T09:18:26.423Z,31.76
2017-06-30T09:19:06.926Z,32.04
2017-06-30T09:19:47.428Z,31.25
2017-06-30T09:20:27.990Z,30
2017-06-30T09:21:08.478Z,29.43
2017-06-30T09:21:49.016Z,29.23